createdAt,value
2018-09-28T00:01:18.176Z,91.40
2018-09-28T00:03:46.996Z,91.50
2018-09-28T00:06:15.930Z,91.70
2018-09-28T00:08:44.844Z,91.80
2018-09-28T00:11:13.670Z,91.80
2018-09-28T00:13:42.596Z,91.90
2018-09-28T00:16:11.437Z,91.90
2018-09-28T00:18:40.433Z,91.80
2018-09-28T00:21:09.384Z,91.70
2018-09-28T00:23:38.232Z,91.60
2018-09-28T00:26:07.458Z,91.50
2018-09-28T00:28:36.219Z,91.30
2018-09-28T00:31:05.189Z,91.40
2018-09-28T00:33:34.004Z,91.50
2018-09-28T00:36:03.045Z,91.50
2018-09-28T00:38:31.968Z,92.00
2018-09-28T00:41:00.906Z,91.60
2018-09-28T00:43:29.818Z,91.60
2018-09-28T00:45:58.660Z,91.60
2018-09-28T00:48:27.515Z,91.60
2018-09-28T00:50:56.344Z,91.60
2018-09-28T00:53:25.271Z,91.70
2018-09-28T00:55:54.205Z,91.80
2018-09-28T00:58:23.112Z,92.00
2018-09-28T01:00:52.034Z,92.10
2018-09-28T01:03:20.885Z,92.10
2018-09-28T01:05:49.832Z,92.00
2018-09-28T01:08:18.756Z,91.90
2018-09-28T01:10:47.636Z,91.90
2018-09-28T01:13:16.561Z,92.10
2018-09-28T01:15:45.413Z,92.10
2018-09-28T01:18:14.301Z,92.10
2018-09-28T01:20:43.205Z,92.10
2018-09-28T01:23:12.110Z,92.10
2018-09-28T01:25:40.993Z,92.20
2018-09-28T01:28:09.954Z,92.20
2018-09-28T01:30:38.816Z,92.20
2018-09-28T01:33:07.760Z,92.20
2018-09-28T01:35:36.653Z,92.30
2018-09-28T01:38:05.529Z,92.30
2018-09-28T01:40:34.489Z,92.20
2018-09-28T01:43:03.433Z,92.00
2018-09-28T01:45:32.325Z,92.10
2018-09-28T01:48:01.189Z,92.10
2018-09-28T01:50:30.064Z,92.10
2018-09-28T01:52:58.985Z,92.50
2018-09-28T01:55:27.973Z,92.20
2018-09-28T01:57:56.908Z,92.30
2018-09-28T02:00:25.837Z,92.50
2018-09-28T02:02:54.790Z,92.10
2018-09-28T02:05:23.864Z,92.10
2018-09-28T02:07:52.989Z,92.10
2018-09-28T02:10:21.909Z,92.10
2018-09-28T02:12:50.840Z,92.20
2018-09-28T02:15:19.801Z,92.40
2018-09-28T02:17:48.888Z,92.70
2018-09-28T02:20:20.481Z,92.80
2018-09-28T02:23:02.163Z,92.90
2018-09-28T02:25:31.140Z,92.90
2018-09-28T02:28:00.588Z,93.20
2018-09-28T02:30:29.546Z,92.70
2018-09-28T02:32:58.476Z,92.60
2018-09-28T02:35:27.444Z,92.50
2018-09-28T02:37:56.322Z,92.50
2018-09-28T02:40:25.197Z,92.40
2018-09-28T02:42:54.141Z,92.40
2018-09-28T02:45:23.111Z,92.30
2018-09-28T02:47:51.974Z,92.20
2018-09-28T02:50:20.989Z,92.20
2018-09-28T02:52:49.961Z,92.30
2018-09-28T02:55:18.913Z,92.30
2018-09-28T02:57:47.853Z,92.30
2018-09-28T03:00:16.824Z,92.40
2018-09-28T03:02:45.671Z,92.60
2018-09-28T03:05:14.629Z,93.00
2018-09-28T03:07:43.622Z,92.60
2018-09-28T03:10:12.729Z,92.70
2018-09-28T03:12:42.165Z,92.70
2018-09-28T03:15:11.174Z,92.70
2018-09-28T03:17:40.165Z,92.80
2018-09-28T03:20:09.319Z,92.90
2018-09-28T03:22:38.306Z,93.00
2018-09-28T03:25:11.806Z,93.00
2018-09-28T03:27:41.211Z,92.80
2018-09-28T03:30:10.495Z,92.80
2018-09-28T03:32:39.567Z,92.80
2018-09-28T03:35:12.078Z,92.60
2018-09-28T03:37:41.127Z,92.70
2018-09-28T03:40:11.827Z,92.70
2018-09-28T03:42:40.850Z,92.70
2018-09-28T03:45:09.994Z,92.80
2018-09-28T03:47:40.018Z,93.00
2018-09-28T03:50:10.398Z,93.20
2018-09-28T03:52:39.425Z,93.40
2018-09-28T03:55:08.477Z,93.40
2018-09-28T03:57:37.576Z,93.40
2018-09-28T04:00:07.554Z,93.40
2018-09-28T04:02:36.613Z,93.50
2018-09-28T04:05:05.667Z,93.90
2018-09-28T04:07:34.718Z,93.50
2018-09-28T04:10:04.051Z,93.50
2018-09-28T04:12:33.053Z,93.50
2018-09-28T04:15:02.418Z,93.40
2018-09-28T04:17:31.391Z,93.30
2018-09-28T04:20:00.305Z,93.20
2018-09-28T04:22:29.272Z,93.10
2018-09-28T04:24:58.338Z,93.00
2018-09-28T04:27:27.268Z,93.00
2018-09-28T04:29:56.496Z,92.90
2018-09-28T04:32:25.831Z,92.90
2018-09-28T04:34:54.816Z,93.00
2018-09-28T04:37:24.043Z,93.10
2018-09-28T04:39:53.598Z,93.10
2018-09-28T04:42:23.086Z,93.00
2018-09-28T04:44:52.310Z,93.10
2018-09-28T04:47:21.202Z,93.00
2018-09-28T04:49:50.414Z,93.00
2018-09-28T04:52:19.337Z,93.00
2018-09-28T04:54:48.356Z,93.00
2018-09-28T04:57:17.245Z,93.00
2018-09-28T04:59:46.215Z,93.30
2018-09-28T05:02:15.099Z,93.00
2018-09-28T05:04:44.085Z,93.10
2018-09-28T05:07:12.968Z,93.20
2018-09-28T05:09:41.909Z,93.30
2018-09-28T05:12:10.809Z,93.40
2018-09-28T05:14:39.793Z,93.50
2018-09-28T05:17:08.894Z,93.50
2018-09-28T05:19:37.839Z,93.40
2018-09-28T05:22:06.800Z,93.30
2018-09-28T05:24:35.814Z,93.30
2018-09-28T05:27:05.092Z,93.10
2018-09-28T05:29:34.267Z,92.90
2018-09-28T05:32:03.290Z,92.80
2018-09-28T05:34:32.347Z,92.60
2018-09-28T05:37:01.293Z,92.60
2018-09-28T05:39:30.196Z,92.60
2018-09-28T05:41:59.129Z,92.60
2018-09-28T05:44:28.037Z,92.50
2018-09-28T05:46:56.981Z,92.50
2018-09-28T05:49:26.001Z,92.50
2018-09-28T05:51:55.012Z,92.60
2018-09-28T05:54:24.043Z,92.50
2018-09-28T05:56:53.022Z,92.50
2018-09-28T06:00:28.624Z,92.50
2018-09-28T06:03:02.605Z,92.40
2018-09-28T06:05:36.928Z,92.50
2018-09-28T06:08:05.891Z,92.40
2018-09-28T06:10:34.878Z,92.30
2018-09-28T06:13:04.377Z,92.20
2018-09-28T06:15:33.321Z,92.20
2018-09-28T06:18:02.273Z,92.10
2018-09-28T06:20:31.463Z,92.00
2018-09-28T06:23:00.326Z,91.90
2018-09-28T06:25:29.216Z,91.70
2018-09-28T06:27:58.071Z,92.00
2018-09-28T06:30:27.004Z,91.60
2018-09-28T06:32:55.944Z,91.60
2018-09-28T06:35:24.969Z,91.50
2018-09-28T06:37:54.025Z,91.60
2018-09-28T06:40:22.948Z,91.30
2018-09-28T06:42:51.777Z,91.10
2018-09-28T06:45:20.949Z,91.20
2018-09-28T06:47:49.884Z,91.10
2018-09-28T06:50:18.786Z,91.10
2018-09-28T06:52:47.817Z,90.90
2018-09-28T06:55:16.785Z,90.80
2018-09-28T06:57:45.810Z,90.80
2018-09-28T07:00:14.870Z,90.90
2018-09-28T07:02:43.832Z,90.80
2018-09-28T07:05:12.894Z,90.80
2018-09-28T07:07:41.880Z,90.90
2018-09-28T07:10:10.774Z,90.10
2018-09-28T07:12:39.662Z,90.00
2018-09-28T07:15:08.594Z,90.00
2018-09-28T07:17:37.479Z,90.20
2018-09-28T07:20:06.472Z,90.30
2018-09-28T07:22:35.378Z,90.20
2018-09-28T07:25:04.364Z,90.20
2018-09-28T07:27:33.262Z,90.10
2018-09-28T07:30:02.221Z,89.90
2018-09-28T07:32:31.114Z,89.40
2018-09-28T07:34:59.984Z,88.90
2018-09-28T07:37:28.901Z,87.90
2018-09-28T07:39:57.873Z,87.70
2018-09-28T07:42:26.920Z,87.30
2018-09-28T07:44:55.913Z,85.90
2018-09-28T07:47:24.852Z,85.50
2018-09-28T07:49:53.784Z,84.90
2018-09-28T07:52:22.682Z,84.30
2018-09-28T07:54:51.657Z,83.50
2018-09-28T07:57:20.636Z,82.70
2018-09-28T07:59:49.594Z,80.90
2018-09-28T08:02:18.591Z,80.10
2018-09-28T08:04:47.617Z,80.00
2018-09-28T08:07:16.589Z,78.50
2018-09-28T08:09:45.546Z,77.20
2018-09-28T08:12:14.533Z,76.60
2018-09-28T08:14:43.446Z,76.70
2018-09-28T08:17:12.335Z,76.70
2018-09-28T08:19:41.269Z,76.60
2018-09-28T08:22:10.270Z,77.50
2018-09-28T08:24:39.196Z,76.10
2018-09-28T08:27:08.089Z,74.70
2018-09-28T08:29:37.001Z,73.80
2018-09-28T08:32:05.926Z,73.10
2018-09-28T08:34:34.853Z,72.40
2018-09-28T08:37:03.752Z,71.50
2018-09-28T08:39:32.652Z,72.00
2018-09-28T08:42:01.624Z,72.40
2018-09-28T08:44:31.049Z,71.00
2018-09-28T08:46:59.938Z,71.70
2018-09-28T08:49:28.877Z,72.80
2018-09-28T08:51:58.369Z,72.50
2018-09-28T08:54:27.244Z,72.00
2018-09-28T08:56:56.179Z,71.60
2018-09-28T08:59:25.258Z,71.10
2018-09-28T09:01:54.290Z,71.40
2018-09-28T09:04:23.221Z,70.20
2018-09-28T09:06:52.132Z,69.40
2018-09-28T09:09:21.029Z,66.80
2018-09-28T09:11:49.963Z,67.20
2018-09-28T09:14:18.868Z,66.90
2018-09-28T09:16:47.758Z,65.50
2018-09-28T09:19:16.665Z,64.80
2018-09-28T09:21:45.655Z,65.50
2018-09-28T09:24:14.617Z,63.80
2018-09-28T09:26:43.577Z,62.10
2018-09-28T09:29:12.541Z,62.20
2018-09-28T09:31:41.566Z,58.10
2018-09-28T09:34:10.584Z,57.10
2018-09-28T09:36:39.621Z,57.30
2018-09-28T09:39:09.833Z,56.10
2018-09-28T09:41:38.841Z,55.30
2018-09-28T09:44:07.882Z,54.50
2018-09-28T09:46:36.915Z,52.20
2018-09-28T09:49:05.983Z,52.20
2018-09-28T09:51:34.988Z,52.70
2018-09-28T09:54:04.203Z,51.80
2018-09-28T09:56:33.153Z,53.00
2018-09-28T09:59:02.105Z,55.20
2018-09-28T10:01:36.243Z,54.60
2018-09-28T10:04:08.820Z,53.70
2018-09-28T10:06:37.728Z,53.40
2018-09-28T10:09:10.205Z,54.30
2018-09-28T10:11:39.262Z,54.50
2018-09-28T10:14:08.307Z,53.80
2018-09-28T10:16:37.314Z,53.60
2018-09-28T10:19:06.688Z,52.70
2018-09-28T10:21:35.690Z,52.20
2018-09-28T10:24:04.605Z,51.80
2018-09-28T10:26:33.501Z,50.80
2018-09-28T10:29:02.381Z,51.80
2018-09-28T10:31:31.293Z,50.50
2018-09-28T10:34:00.278Z,49.70
2018-09-28T10:36:29.149Z,49.10
2018-09-28T10:38:58.017Z,48.40
2018-09-28T10:41:26.910Z,47.70
2018-09-28T10:43:56.117Z,46.90
2018-09-28T10:46:25.067Z,45.60
2018-09-28T10:48:53.944Z,44.90
2018-09-28T10:51:22.972Z,44.60
2018-09-28T10:53:51.920Z,46.20
2018-09-28T10:56:20.890Z,45.70
2018-09-28T10:58:49.856Z,45.00
2018-09-28T11:01:19.273Z,44.60
2018-09-28T11:03:48.562Z,44.20
2018-09-28T11:06:17.589Z,44.50
2018-09-28T11:08:46.674Z,42.20
2018-09-28T11:11:15.662Z,42.40
2018-09-28T11:13:44.828Z,42.20
2018-09-28T11:16:13.835Z,41.80
2018-09-28T11:18:42.853Z,40.40
2018-09-28T11:21:11.875Z,41.00
2018-09-28T11:23:40.868Z,40.80
2018-09-28T11:26:09.912Z,41.10
2018-09-28T11:28:38.794Z,40.30
2018-09-28T11:31:07.672Z,39.50
2018-09-28T11:33:36.596Z,40.00
2018-09-28T11:36:07.809Z,39.20
2018-09-28T11:38:36.741Z,39.50
2018-09-28T11:41:08.794Z,38.40
2018-09-28T11:43:37.752Z,38.50
2018-09-28T11:46:07.925Z,39.20
2018-09-28T11:48:36.797Z,39.80
2018-09-28T11:51:08.080Z,38.70
2018-09-28T11:53:37.042Z,37.50
2018-09-28T11:56:07.884Z,37.70
2018-09-28T11:58:37.060Z,37.50
2018-09-28T12:01:07.636Z,36.70
2018-09-28T12:03:36.629Z,37.00
2018-09-28T12:06:07.859Z,36.70
2018-09-28T12:08:36.995Z,34.80
2018-09-28T12:11:07.672Z,34.20
2018-09-28T12:13:36.825Z,33.90
2018-09-28T12:16:07.612Z,32.90
2018-09-28T12:18:36.776Z,31.80
2018-09-28T12:21:07.977Z,31.30
2018-09-28T12:23:36.960Z,30.90
2018-09-28T12:26:07.904Z,30.90
2018-09-28T12:28:36.853Z,30.50
2018-09-28T12:31:07.653Z,29.60
2018-09-28T12:33:36.910Z,29.90
2018-09-28T12:36:07.983Z,29.00
2018-09-28T12:38:36.861Z,29.00
2018-09-28T12:41:07.713Z,28.30
2018-09-28T12:43:36.634Z,27.80
2018-09-28T12:46:07.885Z,28.00
2018-09-28T12:48:36.769Z,27.90
2018-09-28T12:51:08.741Z,27.80
2018-09-28T12:53:37.731Z,28.20
2018-09-28T12:56:08.224Z,28.40
2018-09-28T12:58:37.146Z,28.00
2018-09-28T13:01:08.171Z,27.80
2018-09-28T13:03:36.957Z,27.70
2018-09-28T13:06:05.965Z,27.80
2018-09-28T13:08:34.914Z,28.00
2018-09-28T13:11:03.893Z,28.10
2018-09-28T13:13:32.828Z,28.30
2018-09-28T13:16:01.829Z,27.90
2018-09-28T13:18:30.801Z,28.10
2018-09-28T13:20:59.728Z,27.90
2018-09-28T13:23:28.658Z,28.70
2018-09-28T13:25:57.624Z,28.70
2018-09-28T13:28:26.800Z,28.20
2018-09-28T13:30:55.740Z,28.10
2018-09-28T13:33:24.769Z,27.20
2018-09-28T13:35:53.643Z,27.70
2018-09-28T13:38:22.875Z,27.50
2018-09-28T13:40:51.782Z,27.30
2018-09-28T13:43:20.724Z,27.30
2018-09-28T13:45:49.681Z,26.70
2018-09-28T13:48:18.606Z,25.60
2018-09-28T13:50:47.960Z,25.40
2018-09-28T13:53:16.842Z,25.00
2018-09-28T13:55:45.748Z,24.50
2018-09-28T13:58:14.779Z,23.60
2018-09-28T14:00:43.830Z,22.80
2018-09-28T14:03:12.740Z,22.70
2018-09-28T14:05:41.693Z,22.80
2018-09-28T14:08:10.725Z,22.80
2018-09-28T14:10:39.802Z,22.80
2018-09-28T14:13:08.880Z,22.40
2018-09-28T14:15:38.384Z,22.30
2018-09-28T14:18:08.291Z,21.60
2018-09-28T14:20:38.477Z,21.40
2018-09-28T14:23:07.546Z,21.60
2018-09-28T14:25:36.416Z,20.80
2018-09-28T14:28:05.321Z,21.10
2018-09-28T14:30:34.147Z,20.80
2018-09-28T14:33:03.017Z,20.50
2018-09-28T14:35:31.897Z,20.50
2018-09-28T14:38:00.757Z,20.50
2018-09-28T14:40:29.706Z,20.40
2018-09-28T14:42:58.572Z,20.00
2018-09-28T14:45:27.488Z,20.40
2018-09-28T14:47:56.354Z,21.30
2018-09-28T14:50:25.524Z,21.50
2018-09-28T14:52:54.401Z,21.00
2018-09-28T14:55:23.463Z,20.60
2018-09-28T14:57:52.574Z,20.60
2018-09-28T15:00:22.439Z,20.10
2018-09-28T15:02:51.357Z,20.80
2018-09-28T15:05:20.717Z,20.80
2018-09-28T15:07:50.524Z,21.20
2018-09-28T15:10:19.934Z,21.10
2018-09-28T15:12:49.193Z,20.90
2018-09-28T15:15:18.131Z,21.00
2018-09-28T15:17:46.987Z,21.60
2018-09-28T15:20:16.649Z,22.00
2018-09-28T15:22:45.569Z,22.40
2018-09-28T15:25:15.026Z,23.10
2018-09-28T15:27:43.892Z,23.40
2018-09-28T15:30:13.728Z,23.40
2018-09-28T15:32:42.712Z,23.20
2018-09-28T15:35:12.276Z,23.20
2018-09-28T15:37:41.190Z,23.20
2018-09-28T15:40:10.354Z,24.10
2018-09-28T15:42:39.997Z,24.00
2018-09-28T15:45:09.001Z,25.20
2018-09-28T15:47:40.658Z,27.50
2018-09-28T15:50:09.642Z,30.20
2018-09-28T15:52:39.041Z,33.70
2018-09-28T15:55:08.117Z,36.30
2018-09-28T15:57:44.660Z,38.10
2018-09-28T16:00:15.271Z,40.00
2018-09-28T16:02:44.272Z,41.20
2018-09-28T16:05:14.105Z,42.50
2018-09-28T16:07:43.752Z,43.50
2018-09-28T16:10:12.727Z,44.30
2018-09-28T16:12:41.681Z,45.20
2018-09-28T16:15:10.688Z,46.60
2018-09-28T16:17:39.659Z,47.50
2018-09-28T16:20:08.626Z,48.50
2018-09-28T16:22:37.582Z,49.90
2018-09-28T16:25:06.669Z,51.20
2018-09-28T16:27:35.644Z,52.10
2018-09-28T16:30:04.743Z,52.50
2018-09-28T16:32:33.786Z,53.10
2018-09-28T16:35:03.746Z,53.90
2018-09-28T16:37:32.759Z,54.80
2018-09-28T16:40:01.644Z,55.40
2018-09-28T16:42:30.588Z,55.90
2018-09-28T16:44:59.542Z,55.70
2018-09-28T16:47:28.470Z,56.50
2018-09-28T16:49:57.488Z,57.20
2018-09-28T16:52:26.449Z,57.80
2018-09-28T16:54:55.429Z,57.70
2018-09-28T16:57:24.383Z,58.50
2018-09-28T16:59:53.474Z,59.30
2018-09-28T17:02:22.378Z,59.70
2018-09-28T17:04:51.304Z,60.60
2018-09-28T17:07:20.242Z,61.00
2018-09-28T17:09:49.199Z,61.50
2018-09-28T17:12:18.142Z,62.10
2018-09-28T17:14:47.036Z,62.90
2018-09-28T17:17:16.045Z,63.30
2018-09-28T17:19:45.123Z,63.90
2018-09-28T17:22:14.173Z,65.10
2018-09-28T17:24:43.248Z,65.60
2018-09-28T17:27:12.193Z,67.10
2018-09-28T17:29:41.150Z,67.60
2018-09-28T17:32:16.036Z,67.50
2018-09-28T17:34:45.033Z,67.80
2018-09-28T17:37:14.423Z,68.50
2018-09-28T17:39:43.434Z,69.40
2018-09-28T17:42:12.469Z,70.10
2018-09-28T17:44:41.805Z,70.50
2018-09-28T17:47:10.975Z,71.30
2018-09-28T17:49:39.969Z,71.80
2018-09-28T17:52:09.221Z,72.60
2018-09-28T17:54:38.282Z,73.10
2018-09-28T17:57:07.572Z,73.30
2018-09-28T17:59:36.581Z,73.50
2018-09-28T18:02:05.626Z,73.80
2018-09-28T18:04:34.626Z,74.10
2018-09-28T18:07:03.688Z,74.80
2018-09-28T18:09:32.686Z,75.90
2018-09-28T18:12:01.831Z,76.00
2018-09-28T18:14:30.821Z,76.10
2018-09-28T18:16:59.864Z,76.70
2018-09-28T18:19:29.918Z,76.90
2018-09-28T18:21:58.976Z,77.80
2018-09-28T18:24:28.005Z,77.90
2018-09-28T18:26:57.922Z,79.20
2018-09-28T18:29:26.942Z,78.80
2018-09-28T18:31:55.902Z,79.10
2018-09-28T18:34:24.911Z,79.40
2018-09-28T18:36:53.837Z,79.70
2018-09-28T18:39:22.816Z,80.20
2018-09-28T18:41:51.856Z,81.00
2018-09-28T18:44:20.907Z,81.40
2018-09-28T18:46:49.937Z,81.70
2018-09-28T18:49:18.947Z,82.00
2018-09-28T18:51:48.142Z,81.80
2018-09-28T18:54:17.121Z,81.60
2018-09-28T18:56:46.146Z,81.80
2018-09-28T18:59:15.217Z,82.20
2018-09-28T19:01:44.284Z,82.70
2018-09-28T19:04:13.451Z,83.40
2018-09-28T19:06:43.527Z,83.80
2018-09-28T19:09:13.413Z,84.30
2018-09-28T19:11:42.892Z,84.50
2018-09-28T19:14:12.252Z,84.50
2018-09-28T19:16:41.790Z,84.50
2018-09-28T19:19:11.461Z,84.70
2018-09-28T19:21:40.724Z,84.30
2018-09-28T19:24:11.202Z,85.10
2018-09-28T19:26:40.708Z,86.00
2018-09-28T19:29:10.493Z,86.60
2018-09-28T19:31:39.850Z,87.00
2018-09-28T19:34:08.983Z,87.50
2018-09-28T19:36:37.986Z,87.40
2018-09-28T19:39:09.840Z,87.50
2018-09-28T19:41:39.479Z,87.60
2018-09-28T19:44:09.743Z,87.50
2018-09-28T19:46:38.752Z,87.40
2018-09-28T19:49:07.688Z,87.60
2018-09-28T19:51:36.630Z,87.90
2018-09-28T19:54:05.553Z,87.90
2018-09-28T19:56:34.533Z,88.00
2018-09-28T19:59:03.833Z,88.00
2018-09-28T20:01:32.731Z,88.50
2018-09-28T20:04:01.609Z,89.60
2018-09-28T20:06:30.494Z,88.80
2018-09-28T20:08:59.369Z,89.60
2018-09-28T20:11:28.344Z,90.20
2018-09-28T20:13:57.344Z,90.40
2018-09-28T20:16:26.729Z,90.50
2018-09-28T20:18:55.600Z,90.50
2018-09-28T20:21:24.533Z,90.50
2018-09-28T20:23:53.605Z,90.50
2018-09-28T20:26:23.849Z,90.50
2018-09-28T20:28:52.937Z,90.50
2018-09-28T20:31:22.700Z,90.70
2018-09-28T20:33:51.721Z,91.00
2018-09-28T20:36:20.621Z,91.00
2018-09-28T20:38:49.523Z,91.00
2018-09-28T20:41:18.544Z,91.00
2018-09-28T20:43:47.497Z,91.00
2018-09-28T20:46:16.382Z,91.00
2018-09-28T20:48:45.404Z,91.00
2018-09-28T20:51:14.462Z,91.10
2018-09-28T20:53:43.424Z,91.20
2018-09-28T20:56:12.283Z,91.30
2018-09-28T20:58:41.329Z,91.50
2018-09-28T21:01:10.430Z,91.60
2018-09-28T21:03:39.376Z,91.60
2018-09-28T21:06:08.341Z,91.60
2018-09-28T21:08:37.262Z,91.50
2018-09-28T21:11:06.229Z,91.40
2018-09-28T21:13:35.257Z,91.50
2018-09-28T21:16:04.176Z,91.40
2018-09-28T21:18:33.109Z,91.40
2018-09-28T21:21:02.068Z,91.40
2018-09-28T21:23:31.023Z,91.40
2018-09-28T21:26:00.025Z,91.50
2018-09-28T21:28:28.881Z,91.60
2018-09-28T21:30:57.816Z,91.60
2018-09-28T21:33:26.939Z,91.60
2018-09-28T21:35:56.090Z,91.60
2018-09-28T21:38:25.520Z,91.60
2018-09-28T21:40:54.561Z,91.60
2018-09-28T21:43:23.582Z,91.50
2018-09-28T21:45:52.578Z,91.50
2018-09-28T21:48:21.517Z,91.50
2018-09-28T21:50:50.505Z,91.50
2018-09-28T21:53:19.531Z,91.40
2018-09-28T21:55:48.589Z,91.40
2018-09-28T21:58:17.701Z,91.40
2018-09-28T22:00:50.792Z,91.40
2018-09-28T22:03:19.727Z,91.60
2018-09-28T22:05:48.794Z,91.60
2018-09-28T22:08:17.917Z,91.60
2018-09-28T22:10:46.902Z,91.60
2018-09-28T22:13:15.844Z,91.60
2018-09-28T22:15:44.934Z,91.70
2018-09-28T22:18:13.897Z,91.70
2018-09-28T22:20:42.809Z,91.60
2018-09-28T22:23:11.880Z,92.10
2018-09-28T22:25:40.884Z,91.60
2018-09-28T22:28:09.828Z,91.70
2018-09-28T22:30:38.768Z,91.80
2018-09-28T22:33:07.728Z,91.80
2018-09-28T22:35:36.704Z,92.10
2018-09-28T22:38:05.665Z,92.30
2018-09-28T22:40:34.712Z,92.50
2018-09-28T22:43:03.668Z,92.70
2018-09-28T22:45:32.598Z,92.80
2018-09-28T22:48:01.565Z,92.80
2018-09-28T22:50:30.499Z,92.80
2018-09-28T22:52:59.533Z,92.60
2018-09-28T22:55:28.516Z,92.50
2018-09-28T22:57:57.495Z,92.50
2018-09-28T23:00:26.496Z,92.60
2018-09-28T23:02:55.560Z,92.70
2018-09-28T23:05:24.565Z,93.00
2018-09-28T23:07:53.528Z,93.00
2018-09-28T23:10:22.506Z,93.10
2018-09-28T23:12:51.402Z,93.40
2018-09-28T23:15:20.362Z,92.90
2018-09-28T23:17:49.222Z,93.00
2018-09-28T23:20:18.172Z,92.90
2018-09-28T23:22:47.132Z,92.90
2018-09-28T23:25:16.058Z,93.00
2018-09-28T23:27:45.016Z,93.10
2018-09-28T23:30:13.920Z,93.10
2018-09-28T23:32:42.863Z,93.10
2018-09-28T23:35:11.984Z,93.10
2018-09-28T23:37:40.913Z,93.40
2018-09-28T23:40:09.868Z,93.40
2018-09-28T23:42:38.809Z,93.40
2018-09-28T23:45:08.342Z,93.40
2018-09-28T23:47:37.361Z,93.30
2018-09-28T23:50:06.384Z,93.20
2018-09-28T23:52:35.421Z,93.10
2018-09-28T23:55:04.697Z,93.00
2018-09-28T23:57:33.616Z,93.30
